createdAt,value
2023-01-30T00:02:07.339Z,100492.81
2023-01-30T00:04:35.876Z,100492.81
2023-01-30T00:07:07.920Z,100505.84
2023-01-30T00:09:36.318Z,100504.13
2023-01-30T00:12:05.231Z,100519.66
2023-01-30T00:14:33.583Z,100522.22
2023-01-30T00:17:01.936Z,100509.41
2023-01-30T00:19:30.285Z,100500.78
2023-01-30T00:21:58.734Z,100497.38
2023-01-30T00:24:28.615Z,100491.41
2023-01-30T00:26:57.165Z,100481.06
2023-01-30T00:29:25.806Z,100489.81
2023-01-30T00:31:56.164Z,100490.78
2023-01-30T00:34:25.909Z,100479.66
2023-01-30T00:39:44.111Z,100474.66
2023-01-30T00:42:29.813Z,100467.91
2023-01-30T00:45:16.113Z,100449.00
2023-01-30T00:47:46.201Z,100457.75
2023-01-30T00:50:14.585Z,100463.81
2023-01-30T00:52:45.037Z,100434.63
2023-01-30T00:55:16.423Z,100430.47
2023-01-30T00:57:46.179Z,100434.03
2023-01-30T01:00:17.753Z,100427.25
2023-01-30T01:02:46.125Z,100424.75
2023-01-30T01:05:14.630Z,100424.03
2023-01-30T01:07:43.095Z,100425.84
2023-01-30T01:10:16.296Z,100434.59
2023-01-30T01:12:48.612Z,100427.81
2023-01-30T01:15:17.510Z,100427.91
2023-01-30T01:17:46.104Z,100415.94
2023-01-30T01:20:14.905Z,100406.59
2023-01-30T01:22:43.394Z,100399.00
2023-01-30T01:25:12.848Z,100399.09
2023-01-30T01:27:41.454Z,100391.41
2023-01-30T01:30:14.942Z,100381.94
2023-01-30T01:32:45.425Z,100405.34
2023-01-30T01:35:13.818Z,100405.44
2023-01-30T01:37:47.114Z,100397.69
2023-01-30T01:40:39.241Z,100393.41
2023-01-30T01:43:19.815Z,100384.91
2023-01-30T01:45:54.308Z,100391.06
2023-01-30T01:48:28.762Z,100391.97
2023-01-30T01:51:01.949Z,100393.75
2023-01-30T01:53:35.138Z,100387.84
2023-01-30T01:56:05.184Z,100388.00
2023-01-30T01:58:39.309Z,100378.66
2023-01-30T02:01:11.851Z,100382.22
2023-01-30T02:03:46.463Z,100361.63
2023-01-30T02:06:18.387Z,100352.25
2023-01-30T02:08:51.303Z,100367.06
2023-01-30T02:11:30.238Z,100360.19
2023-01-30T02:14:01.402Z,100352.47
2023-01-30T02:16:31.297Z,100357.88
2023-01-30T02:18:59.877Z,100333.75
2023-01-30T02:22:03.881Z,100332.91
2023-01-30T02:25:11.420Z,100325.34
2023-01-30T02:28:13.361Z,100320.16
2023-01-30T02:31:15.717Z,100314.19
2023-01-30T02:33:56.808Z,100304.81
2023-01-30T02:36:32.697Z,100299.63
2023-01-30T02:39:09.583Z,100298.78
2023-01-30T02:41:46.214Z,100295.59
2023-01-30T02:44:22.998Z,100282.63
2023-01-30T02:46:57.572Z,100296.56
2023-01-30T02:49:32.831Z,100281.09
2023-01-30T02:52:03.344Z,100284.59
2023-01-30T02:54:33.492Z,100277.78
2023-01-30T02:57:02.219Z,100268.34
2023-01-30T02:59:38.400Z,100292.59
2023-01-30T03:02:25.760Z,100283.31
2023-01-30T03:05:09.309Z,100270.47
2023-01-30T03:07:46.974Z,100255.88
2023-01-30T03:10:25.597Z,100260.25
2023-01-30T03:13:04.604Z,100278.44
2023-01-30T03:15:36.569Z,100262.13
2023-01-30T03:18:06.751Z,100266.47
2023-01-30T03:20:38.312Z,100254.50
2023-01-30T03:23:07.710Z,100267.47
2023-01-30T03:25:39.322Z,100256.38
2023-01-30T03:28:09.260Z,100252.06
2023-01-30T03:30:38.528Z,100242.69
2023-01-30T03:33:14.755Z,100239.38
2023-01-30T03:35:48.580Z,100242.84
2023-01-30T03:38:18.327Z,100247.25
2023-01-30T03:40:53.277Z,100236.06
2023-01-30T03:43:22.057Z,100236.06
2023-01-30T03:45:50.529Z,100227.50
2023-01-30T03:48:22.562Z,100215.47
2023-01-30T03:50:50.859Z,100200.84
2023-01-30T03:53:21.897Z,100212.09
2023-01-30T03:55:50.690Z,100206.97
2023-01-30T03:58:24.195Z,100213.97
2023-01-30T04:00:52.797Z,100205.31
2023-01-30T04:03:22.600Z,100207.06
2023-01-30T04:05:52.356Z,100204.56
2023-01-30T04:08:22.015Z,100194.22
2023-01-30T04:10:50.410Z,100179.53
2023-01-30T04:13:19.306Z,100182.19
2023-01-30T04:15:48.359Z,100181.31
2023-01-30T04:18:38.437Z,100169.22
2023-01-30T04:21:22.337Z,100186.63
2023-01-30T04:23:52.512Z,100181.56
2023-01-30T04:26:21.001Z,100176.28
2023-01-30T04:28:49.687Z,100171.19
2023-01-30T04:31:18.339Z,100175.63
2023-01-30T04:34:08.451Z,100167.78
2023-01-30T04:36:37.735Z,100171.28
2023-01-30T04:39:06.238Z,100166.09
2023-01-30T04:41:35.527Z,100173.03
2023-01-30T04:44:04.640Z,100173.03
2023-01-30T04:46:55.737Z,100174.66
2023-01-30T04:49:25.551Z,100165.28
2023-01-30T04:51:55.340Z,100164.28
2023-01-30T04:54:24.160Z,100158.31
2023-01-30T04:56:52.560Z,100162.53
2023-01-30T04:59:21.103Z,100149.56
2023-01-30T05:01:53.407Z,100152.16
2023-01-30T05:04:22.052Z,100165.91
2023-01-30T05:06:51.754Z,100164.22
2023-01-30T05:09:20.137Z,100157.34
2023-01-30T05:11:50.925Z,100167.72
2023-01-30T05:14:19.272Z,100157.34
2023-01-30T05:16:50.899Z,100162.53
2023-01-30T05:19:19.407Z,100162.53
2023-01-30T05:21:47.752Z,100160.81
2023-01-30T05:24:17.469Z,100155.63
2023-01-30T05:26:45.838Z,100147.94
2023-01-30T05:29:16.461Z,100137.63
2023-01-30T05:31:44.982Z,100142.81
2023-01-30T05:34:16.112Z,100136.75
2023-01-30T05:36:44.488Z,100140.31
2023-01-30T05:39:12.849Z,100134.31
2023-01-30T05:41:44.891Z,100120.47
2023-01-30T05:44:13.394Z,100124.91
2023-01-30T05:46:44.719Z,100130.09
2023-01-30T05:49:13.198Z,100131.91
2023-01-30T05:51:44.401Z,100142.31
2023-01-30T05:54:12.797Z,100139.81
2023-01-30T05:56:45.767Z,100133.03
2023-01-30T05:59:15.341Z,100123.44
2023-01-30T06:01:43.673Z,100121.81
2023-01-30T06:04:12.083Z,100135.75
2023-01-30T06:06:40.449Z,100129.75
2023-01-30T06:09:11.401Z,100132.50
2023-01-30T06:11:39.794Z,100128.22
2023-01-30T06:14:09.764Z,100133.47
2023-01-30T06:16:38.536Z,100147.50
2023-01-30T06:19:06.905Z,100155.31
2023-01-30T06:21:35.244Z,100150.22
2023-01-30T06:24:03.627Z,100157.28
2023-01-30T06:26:32.124Z,100158.25
2023-01-30T06:29:00.522Z,100145.44
2023-01-30T06:31:30.281Z,100149.00
2023-01-30T06:33:58.680Z,100155.94
2023-01-30T06:36:27.068Z,100169.88
2023-01-30T06:38:55.379Z,100154.47
2023-01-30T06:41:23.767Z,100156.31
2023-01-30T06:43:52.137Z,100158.19
2023-01-30T06:46:20.446Z,100162.63
2023-01-30T06:48:50.237Z,100164.47
2023-01-30T06:51:18.760Z,100181.84
2023-01-30T06:53:47.442Z,100194.97
2023-01-30T06:56:15.811Z,100188.16
2023-01-30T06:58:44.412Z,100186.53
2023-01-30T07:01:14.841Z,100184.06
2023-01-30T07:03:43.259Z,100188.44
2023-01-30T07:06:13.051Z,100170.34
2023-01-30T07:08:41.945Z,100179.13
2023-01-30T07:11:10.436Z,100173.09
2023-01-30T07:13:38.924Z,100174.91
2023-01-30T07:16:08.195Z,100162.81
2023-01-30T07:18:36.701Z,100173.31
2023-01-30T07:21:05.454Z,100169.09
2023-01-30T07:23:37.450Z,100176.91
2023-01-30T07:26:10.789Z,100175.31
2023-01-30T07:28:40.941Z,100184.00
2023-01-30T07:31:10.360Z,100176.28
2023-01-30T07:33:39.393Z,100180.75
2023-01-30T07:36:11.650Z,100172.16
2023-01-30T07:38:41.721Z,100174.81
2023-01-30T07:41:10.233Z,100187.88
2023-01-30T07:43:42.542Z,100202.72
2023-01-30T07:46:11.615Z,100189.78
2023-01-30T07:48:40.008Z,100196.78
2023-01-30T07:51:11.389Z,100199.41
2023-01-30T07:53:41.904Z,100204.78
2023-01-30T07:56:14.123Z,100195.28
2023-01-30T07:58:44.989Z,100201.44
2023-01-30T08:01:14.173Z,100196.25
2023-01-30T08:03:43.925Z,100207.56
2023-01-30T08:06:13.933Z,100206.78
2023-01-30T08:08:44.452Z,100204.19
2023-01-30T08:11:16.734Z,100205.16
2023-01-30T08:13:45.486Z,100213.75
2023-01-30T08:16:14.684Z,100219.00
2023-01-30T08:18:44.168Z,100219.91
2023-01-30T08:21:13.123Z,100215.53
2023-01-30T08:23:43.412Z,100213.81
2023-01-30T08:26:12.107Z,100218.94
2023-01-30T08:28:41.651Z,100226.72
2023-01-30T08:31:13.828Z,100228.53
2023-01-30T08:33:43.183Z,100211.38
2023-01-30T08:36:11.831Z,100220.03
2023-01-30T08:38:40.574Z,100228.88
2023-01-30T08:41:10.866Z,100228.94
2023-01-30T08:43:40.104Z,100229.13
2023-01-30T08:46:10.543Z,100237.03
2023-01-30T08:48:49.624Z,100236.22
2023-01-30T08:51:19.762Z,100237.19
2023-01-30T08:53:52.613Z,100251.13
2023-01-30T08:56:23.208Z,100246.91
2023-01-30T08:58:54.135Z,100272.88
2023-01-30T09:01:23.212Z,100282.63
2023-01-30T09:03:54.395Z,100266.25
2023-01-30T09:06:26.033Z,100271.56
2023-01-30T09:08:55.073Z,100253.47
2023-01-30T09:11:25.175Z,100237.94
2023-01-30T09:13:58.040Z,100237.13
2023-01-30T09:16:26.695Z,100226.75
2023-01-30T09:18:55.752Z,100238.91
2023-01-30T09:21:35.782Z,100244.97
2023-01-30T09:24:06.959Z,100249.38
2023-01-30T09:26:44.795Z,100265.03
2023-01-30T09:29:14.219Z,100265.03
2023-01-30T09:31:43.107Z,100258.06
2023-01-30T09:34:14.232Z,100260.66
2023-01-30T09:36:43.363Z,100258.94
2023-01-30T09:39:13.772Z,100264.06
2023-01-30T09:42:00.881Z,100300.50
2023-01-30T09:44:49.811Z,100270.22
2023-01-30T09:47:29.808Z,100274.63
2023-01-30T09:50:15.219Z,100276.38
2023-01-30T09:52:58.628Z,100279.81
2023-01-30T09:55:30.259Z,100280.63
2023-01-30T09:58:04.442Z,100282.41
2023-01-30T10:00:36.784Z,100281.53
2023-01-30T10:03:15.010Z,100287.59
2023-01-30T10:05:48.229Z,100291.97
2023-01-30T10:08:35.804Z,100303.19
2023-01-30T10:11:15.700Z,100290.13
2023-01-30T10:14:20.001Z,100306.44
2023-01-30T10:17:01.605Z,100308.22
2023-01-30T10:20:00.416Z,100302.97
2023-01-30T10:22:43.083Z,100319.34
2023-01-30T10:25:25.692Z,100308.91
2023-01-30T10:28:00.488Z,100306.31
2023-01-30T10:30:31.675Z,100316.72
2023-01-30T10:33:05.652Z,100305.44
2023-01-30T10:35:38.387Z,100314.91
2023-01-30T10:38:19.205Z,100306.16
2023-01-30T10:40:56.692Z,100320.09
2023-01-30T10:43:30.321Z,100314.91
2023-01-30T10:46:09.155Z,100312.38
2023-01-30T10:48:54.033Z,100303.72
2023-01-30T10:51:34.019Z,100306.31
2023-01-30T10:54:10.935Z,100305.47
2023-01-30T10:56:51.978Z,100309.06
2023-01-30T10:59:29.551Z,100309.94
2023-01-30T11:02:24.795Z,100294.28
2023-01-30T11:04:59.517Z,100312.63
2023-01-30T11:07:30.665Z,100312.72
2023-01-30T11:10:00.691Z,100310.03
2023-01-30T11:12:30.048Z,100311.78
2023-01-30T11:15:00.560Z,100303.19
2023-01-30T11:17:37.117Z,100314.56
2023-01-30T11:20:15.190Z,100298.97
2023-01-30T11:22:52.069Z,100310.31
2023-01-30T11:25:24.253Z,100315.72
2023-01-30T11:27:58.149Z,100322.78
2023-01-30T11:30:34.900Z,100327.97
2023-01-30T11:33:13.934Z,100322.91
2023-01-30T11:35:53.240Z,100324.72
2023-01-30T11:38:28.221Z,100312.69
2023-01-30T11:41:16.259Z,100325.00
2023-01-30T11:43:45.288Z,100332.13
2023-01-30T11:46:19.611Z,100322.69
2023-01-30T11:49:04.312Z,100318.59
2023-01-30T11:51:49.236Z,100316.00
2023-01-30T11:54:22.945Z,100303.00
2023-01-30T11:57:00.250Z,100305.75
2023-01-30T11:59:32.455Z,100308.34
2023-01-30T12:02:09.759Z,100308.34
2023-01-30T12:04:45.834Z,100317.91
2023-01-30T12:07:23.047Z,100306.72
2023-01-30T12:09:54.619Z,100315.47
2023-01-30T12:12:35.036Z,100325.13
2023-01-30T12:15:27.233Z,100319.19
2023-01-30T12:18:05.059Z,100317.69
2023-01-30T12:20:49.537Z,100320.34
2023-01-30T12:23:25.389Z,100319.59
2023-01-30T12:26:04.709Z,100315.34
2023-01-30T12:28:42.957Z,100314.56
2023-01-30T12:31:30.616Z,100315.56
2023-01-30T12:34:05.668Z,100324.41
2023-01-30T12:36:48.941Z,100315.88
2023-01-30T12:39:37.809Z,100314.19
2023-01-30T12:42:48.074Z,100308.31
2023-01-30T12:45:24.944Z,100324.00
2023-01-30T12:48:24.526Z,100322.44
2023-01-30T12:51:10.171Z,100317.44
2023-01-30T12:53:59.235Z,100319.28
2023-01-30T12:57:08.877Z,100332.50
2023-01-30T12:59:50.761Z,100336.88
2023-01-30T13:02:39.247Z,100340.44
2023-01-30T13:05:28.306Z,100349.09
2023-01-30T13:08:11.884Z,100347.28
2023-01-30T13:10:53.278Z,100343.88
2023-01-30T13:13:30.957Z,100342.22
2023-01-30T13:16:11.696Z,100352.78
2023-01-30T13:18:54.218Z,100342.50
2023-01-30T13:21:31.447Z,100357.97
2023-01-30T13:24:25.386Z,100356.25
2023-01-30T13:27:04.042Z,100370.03
2023-01-30T13:29:39.669Z,100373.44
2023-01-30T13:32:24.104Z,100367.28
2023-01-30T13:35:03.596Z,100378.63
2023-01-30T13:37:35.848Z,100380.44
2023-01-30T13:40:20.488Z,100377.09
2023-01-30T13:43:07.835Z,100375.50
2023-01-30T13:45:45.543Z,100386.06
2023-01-30T13:48:20.391Z,100372.91
2023-01-30T13:51:18.690Z,100379.06
2023-01-30T13:53:56.881Z,100396.63
2023-01-30T13:56:43.105Z,100407.06
2023-01-30T13:59:24.357Z,100394.97
2023-01-30T14:02:25.850Z,100405.53
2023-01-30T14:05:00.459Z,100405.38
2023-01-30T14:07:35.370Z,100414.00
2023-01-30T14:10:23.819Z,100408.78
2023-01-30T14:13:07.536Z,100419.28
2023-01-30T14:16:03.545Z,100417.44
2023-01-30T14:18:39.003Z,100431.41
2023-01-30T14:21:21.698Z,100432.22
2023-01-30T14:23:57.767Z,100432.31
2023-01-30T14:27:02.837Z,100435.88
2023-01-30T14:29:50.941Z,100433.31
2023-01-30T14:32:56.129Z,100436.06
2023-01-30T14:35:29.790Z,100441.34
2023-01-30T14:38:17.388Z,100438.81
2023-01-30T14:41:25.256Z,100440.47
2023-01-30T14:43:56.235Z,100451.50
2023-01-30T14:46:55.809Z,100440.09
2023-01-30T14:49:36.955Z,100455.72
2023-01-30T14:52:33.895Z,100460.06
2023-01-30T14:55:08.917Z,100463.53
2023-01-30T14:57:38.427Z,100471.25
2023-01-30T15:00:19.993Z,100479.16
2023-01-30T15:02:57.666Z,100478.28
2023-01-30T15:05:34.375Z,100488.72
2023-01-30T15:08:28.576Z,100488.81
2023-01-30T15:11:12.859Z,100499.09
2023-01-30T15:13:55.312Z,100503.38
2023-01-30T15:16:46.167Z,100502.38
2023-01-30T15:19:38.915Z,100509.34
2023-01-30T15:22:25.127Z,100520.59
2023-01-30T15:25:32.601Z,100524.06
2023-01-30T15:28:19.184Z,100528.47
2023-01-30T15:31:01.010Z,100537.81
2023-01-30T15:33:33.272Z,100548.25
2023-01-30T15:36:20.131Z,100550.69
2023-01-30T15:38:59.096Z,100547.13
2023-01-30T15:41:44.281Z,100554.84
2023-01-30T15:44:46.667Z,100568.59
2023-01-30T15:47:46.971Z,100557.25
2023-01-30T15:50:23.465Z,100565.72
2023-01-30T15:52:57.036Z,100568.25
2023-01-30T15:55:40.943Z,100579.38
2023-01-30T15:58:24.675Z,100583.72
2023-01-30T16:00:58.127Z,100588.91
2023-01-30T16:03:33.688Z,100583.72
2023-01-30T16:06:10.329Z,100589.78
2023-01-30T16:08:47.226Z,100599.25
2023-01-30T16:11:40.436Z,100593.00
2023-01-30T16:14:15.480Z,100612.03
2023-01-30T16:16:50.855Z,100617.16
2023-01-30T16:19:28.975Z,100618.91
2023-01-30T16:22:02.092Z,100627.56
2023-01-30T16:24:37.114Z,100637.06
2023-01-30T16:27:09.744Z,100622.34
2023-01-30T16:29:53.440Z,100638.78
2023-01-30T16:32:29.828Z,100641.41
2023-01-30T16:35:29.262Z,100646.59
2023-01-30T16:38:32.397Z,100662.19
2023-01-30T16:41:06.186Z,100658.78
2023-01-30T16:43:36.566Z,100668.28
2023-01-30T16:46:39.495Z,100674.22
2023-01-30T16:49:18.458Z,100671.63
2023-01-30T16:51:48.841Z,100666.44
2023-01-30T16:54:23.116Z,100684.66
2023-01-30T16:56:56.816Z,100682.84
2023-01-30T16:59:32.304Z,100686.25
2023-01-30T17:02:04.955Z,100690.59
2023-01-30T17:04:55.295Z,100692.28
2023-01-30T17:07:36.553Z,100702.69
2023-01-30T17:10:32.244Z,100700.91
2023-01-30T17:13:04.655Z,100708.53
2023-01-30T17:15:39.509Z,100712.88
2023-01-30T17:18:13.196Z,100715.47
2023-01-30T17:20:51.280Z,100724.16
2023-01-30T17:23:22.311Z,100721.47
2023-01-30T17:25:56.906Z,100729.19
2023-01-30T17:28:29.181Z,100733.44
2023-01-30T17:31:14.787Z,100741.22
2023-01-30T17:33:53.492Z,100752.53
2023-01-30T17:36:36.073Z,100751.63
2023-01-30T17:39:18.837Z,100747.06
2023-01-30T17:41:55.197Z,100747.91
2023-01-30T17:44:28.410Z,100751.28
2023-01-30T17:47:06.546Z,100761.53
2023-01-30T17:49:38.347Z,100760.56
2023-01-30T17:52:16.362Z,100777.72
2023-01-30T17:54:51.591Z,100776.66
2023-01-30T17:57:27.703Z,100777.41
2023-01-30T17:59:56.831Z,100780.69
2023-01-30T18:02:28.400Z,100781.53
2023-01-30T18:05:01.266Z,100785.84
2023-01-30T18:07:39.315Z,100790.94
2023-01-30T18:10:18.466Z,100792.66
2023-01-30T18:12:53.566Z,100801.19
2023-01-30T18:15:31.631Z,100803.63
2023-01-30T18:18:17.878Z,100812.19
2023-01-30T18:20:55.391Z,100807.81
2023-01-30T18:23:56.614Z,100805.94
2023-01-30T18:26:30.851Z,100811.00
2023-01-30T18:29:07.116Z,100811.72
2023-01-30T18:31:46.630Z,100816.72
2023-01-30T18:34:21.908Z,100810.56
2023-01-30T18:37:00.251Z,100819.16
2023-01-30T18:39:48.461Z,100811.19
2023-01-30T18:42:27.020Z,100821.59
2023-01-30T18:45:13.748Z,100820.59
2023-01-30T18:47:44.811Z,100813.53
2023-01-30T18:50:20.891Z,100820.44
2023-01-30T18:52:56.374Z,100828.06
2023-01-30T18:55:30.941Z,100824.47
2023-01-30T18:57:59.753Z,100831.28
2023-01-30T19:00:34.014Z,100832.00
2023-01-30T19:03:05.418Z,100837.09
2023-01-30T19:05:43.357Z,100837.94
2023-01-30T19:08:12.662Z,100841.16
2023-01-30T19:10:47.264Z,100843.63
2023-01-30T19:13:36.847Z,100860.72
2023-01-30T19:16:10.899Z,100848.47
2023-01-30T19:18:40.731Z,100844.88
2023-01-30T19:21:16.324Z,100846.53
2023-01-30T19:23:47.499Z,100850.63
2023-01-30T19:26:23.481Z,100849.72
2023-01-30T19:28:56.660Z,100865.16
2023-01-30T19:31:26.714Z,100857.97
2023-01-30T19:34:01.021Z,100855.31
2023-01-30T19:36:38.818Z,100856.03
2023-01-30T19:39:08.028Z,100863.72
2023-01-30T19:41:38.973Z,100866.91
2023-01-30T19:44:09.859Z,100873.72
2023-01-30T19:46:46.365Z,100883.94
2023-01-30T19:49:16.593Z,100882.88
2023-01-30T19:51:46.844Z,100893.97
2023-01-30T19:54:28.914Z,100897.34
2023-01-30T19:57:00.197Z,100901.47
2023-01-30T19:59:30.286Z,100898.75
2023-01-30T20:02:00.180Z,100910.75
2023-01-30T20:04:29.493Z,100917.56
2023-01-30T20:07:02.068Z,100920.78
2023-01-30T20:09:36.591Z,100918.00
2023-01-30T20:12:11.143Z,100925.59
2023-01-30T20:14:42.449Z,100924.59
2023-01-30T20:17:16.582Z,100934.88
2023-01-30T20:19:52.493Z,100938.19
2023-01-30T20:22:29.010Z,100936.31
2023-01-30T20:25:01.043Z,100943.09
2023-01-30T20:27:35.596Z,100947.22
2023-01-30T20:30:06.157Z,100952.22
2023-01-30T20:32:41.140Z,100948.50
2023-01-30T20:35:14.200Z,100951.81
2023-01-30T20:37:44.925Z,100952.31
2023-01-30T20:40:15.768Z,100953.94
2023-01-30T20:42:46.598Z,100954.63
2023-01-30T20:45:16.689Z,100956.16
2023-01-30T20:47:52.007Z,100957.63
2023-01-30T20:50:22.005Z,100965.34
2023-01-30T20:52:52.801Z,100975.50
2023-01-30T20:55:22.831Z,100971.91
2023-01-30T20:57:54.081Z,100977.78
2023-01-30T21:00:22.958Z,100978.47
2023-01-30T21:02:59.369Z,100979.19
2023-01-30T21:05:35.719Z,100979.19
2023-01-30T21:08:13.135Z,100980.81
2023-01-30T21:10:47.213Z,100974.00
2023-01-30T21:13:17.856Z,100968.81
2023-01-30T21:15:47.093Z,100975.69
2023-01-30T21:18:17.969Z,100970.63
2023-01-30T21:20:54.112Z,100980.09
2023-01-30T21:23:25.000Z,100981.88
2023-01-30T21:25:55.015Z,100988.97
2023-01-30T21:28:26.355Z,100988.84
2023-01-30T21:30:56.129Z,100991.38
2023-01-30T21:33:25.871Z,100986.97
2023-01-30T21:35:55.834Z,100986.00
2023-01-30T21:38:42.798Z,100994.56
2023-01-30T21:41:36.625Z,100991.66
2023-01-30T21:44:09.062Z,101002.72
2023-01-30T21:46:40.467Z,100999.94
2023-01-30T21:49:12.747Z,101003.03
2023-01-30T21:51:43.800Z,100994.94
2023-01-30T21:54:14.651Z,101000.72
2023-01-30T21:56:44.354Z,101001.41
2023-01-30T21:59:19.350Z,101009.00
2023-01-30T22:01:54.109Z,101010.38
2023-01-30T22:04:27.104Z,101004.13
2023-01-30T22:07:00.182Z,101001.31
2023-01-30T22:09:30.539Z,101006.22
2023-01-30T22:12:05.847Z,101012.84
2023-01-30T22:14:37.580Z,101011.97
2023-01-30T22:17:07.559Z,101010.06
2023-01-30T22:19:40.779Z,101021.19
2023-01-30T22:22:13.690Z,101022.91
2023-01-30T22:24:43.389Z,101022.91
2023-01-30T22:27:13.932Z,101025.59
2023-01-30T22:29:48.059Z,101028.19
2023-01-30T22:32:22.277Z,101030.09
2023-01-30T22:34:55.551Z,101022.41
2023-01-30T22:37:28.666Z,101027.59
2023-01-30T22:40:01.619Z,101017.47
2023-01-30T22:42:31.513Z,101022.84
2023-01-30T22:45:03.258Z,101021.25
2023-01-30T22:47:37.087Z,101028.34
2023-01-30T22:50:08.679Z,101036.31
2023-01-30T22:52:46.935Z,101037.31
2023-01-30T22:55:18.062Z,101038.41
2023-01-30T22:57:51.600Z,101035.91
2023-01-30T23:00:34.033Z,101043.81
2023-01-30T23:03:04.427Z,101040.41
2023-01-30T23:05:34.306Z,101043.00
2023-01-30T23:08:03.466Z,101040.53
2023-01-30T23:10:33.711Z,101036.22
2023-01-30T23:13:09.887Z,101030.03
2023-01-30T23:15:43.959Z,101029.03
2023-01-30T23:18:37.998Z,101029.03
2023-01-30T23:21:12.118Z,101032.44
2023-01-30T23:23:41.879Z,101030.63
2023-01-30T23:26:41.218Z,101027.03
2023-01-30T23:29:21.040Z,101026.13
2023-01-30T23:31:51.152Z,101030.44
2023-01-30T23:34:23.018Z,101039.00
2023-01-30T23:36:55.867Z,101036.31
2023-01-30T23:39:26.545Z,101039.78
2023-01-30T23:41:59.828Z,101026.81
2023-01-30T23:44:36.334Z,101034.59
2023-01-30T23:47:09.840Z,101034.72
2023-01-30T23:49:38.715Z,101045.97
2023-01-30T23:52:10.932Z,101043.50
2023-01-30T23:54:40.824Z,101046.97
2023-01-30T23:57:13.787Z,101045.28
2023-01-30T23:59:46.923Z,101046.16
